sensor_id;sensor_type;location;lat;lon;timestamp;temperature;humidity
80274;DHT22;69576;51.902;-8.462;2023-08-12T00:02:13;18.40;72.60
80274;DHT22;69576;51.902;-8.462;2023-08-12T00:04:44;18.40;72.60
80274;DHT22;69576;51.902;-8.462;2023-08-12T00:07:15;18.40;72.60
80274;DHT22;69576;51.902;-8.462;2023-08-12T00:09:44;18.40;72.60
80274;DHT22;69576;51.902;-8.462;2023-08-12T00:12:10;18.40;72.60
80274;DHT22;69576;51.902;-8.462;2023-08-12T00:14:36;18.40;72.60
80274;DHT22;69576;51.902;-8.462;2023-08-12T00:17:02;18.40;72.60
80274;DHT22;69576;51.902;-8.462;2023-08-12T00:19:30;18.40;72.60
80274;DHT22;69576;51.902;-8.462;2023-08-12T00:21:56;18.40;72.70
80274;DHT22;69576;51.902;-8.462;2023-08-12T00:24:24;18.40;72.60
80274;DHT22;69576;51.902;-8.462;2023-08-12T00:26:49;18.40;72.70
80274;DHT22;69576;51.902;-8.462;2023-08-12T00:29:18;18.40;72.70
80274;DHT22;69576;51.902;-8.462;2023-08-12T00:31:46;18.40;72.70
80274;DHT22;69576;51.902;-8.462;2023-08-12T00:34:14;18.40;72.80
80274;DHT22;69576;51.902;-8.462;2023-08-12T00:36:40;18.30;72.80
80274;DHT22;69576;51.902;-8.462;2023-08-12T00:39:05;18.40;72.80
80274;DHT22;69576;51.902;-8.462;2023-08-12T00:41:31;18.40;72.80
80274;DHT22;69576;51.902;-8.462;2023-08-12T00:43:59;18.40;72.90
80274;DHT22;69576;51.902;-8.462;2023-08-12T00:46:30;18.30;72.90
80274;DHT22;69576;51.902;-8.462;2023-08-12T00:48:56;18.30;73.00
80274;DHT22;69576;51.902;-8.462;2023-08-12T00:51:22;18.30;72.80
80274;DHT22;69576;51.902;-8.462;2023-08-12T00:53:50;18.30;73.00
80274;DHT22;69576;51.902;-8.462;2023-08-12T00:56:17;18.30;72.90
80274;DHT22;69576;51.902;-8.462;2023-08-12T00:58:43;18.30;72.90
80274;DHT22;69576;51.902;-8.462;2023-08-12T01:01:11;18.30;73.00
80274;DHT22;69576;51.902;-8.462;2023-08-12T01:03:37;18.30;73.00
80274;DHT22;69576;51.902;-8.462;2023-08-12T01:06:07;18.30;73.00
80274;DHT22;69576;51.902;-8.462;2023-08-12T01:08:32;18.30;73.00
80274;DHT22;69576;51.902;-8.462;2023-08-12T01:11:24;18.30;73.00
80274;DHT22;69576;51.902;-8.462;2023-08-12T01:15:03;18.30;73.00
80274;DHT22;69576;51.902;-8.462;2023-08-12T01:16:59;18.30;73.10
80274;DHT22;69576;51.902;-8.462;2023-08-12T01:19:38;18.30;73.00
80274;DHT22;69576;51.902;-8.462;2023-08-12T01:22:04;18.30;73.10
80274;DHT22;69576;51.902;-8.462;2023-08-12T01:24:38;18.20;73.10
80274;DHT22;69576;51.902;-8.462;2023-08-12T01:27:05;18.30;73.20
80274;DHT22;69576;51.902;-8.462;2023-08-12T01:29:32;18.20;73.10
80274;DHT22;69576;51.902;-8.462;2023-08-12T01:34:43;18.20;73.20
80274;DHT22;69576;51.902;-8.462;2023-08-12T01:37:17;18.30;73.00
80274;DHT22;69576;51.902;-8.462;2023-08-12T01:39:44;18.30;73.00
80274;DHT22;69576;51.902;-8.462;2023-08-12T01:42:11;18.30;73.00
80274;DHT22;69576;51.902;-8.462;2023-08-12T01:44:40;18.30;73.00
80274;DHT22;69576;51.902;-8.462;2023-08-12T01:47:09;18.20;73.00
80274;DHT22;69576;51.902;-8.462;2023-08-12T01:49:34;18.30;73.10
80274;DHT22;69576;51.902;-8.462;2023-08-12T01:52:03;18.30;73.10
80274;DHT22;69576;51.902;-8.462;2023-08-12T01:54:30;18.30;73.10
80274;DHT22;69576;51.902;-8.462;2023-08-12T01:57:04;18.30;73.00
80274;DHT22;69576;51.902;-8.462;2023-08-12T01:59:35;18.30;73.00
80274;DHT22;69576;51.902;-8.462;2023-08-12T02:02:01;18.30;73.00
80274;DHT22;69576;51.902;-8.462;2023-08-12T02:04:30;18.30;73.00
80274;DHT22;69576;51.902;-8.462;2023-08-12T02:06:56;18.30;73.10
80274;DHT22;69576;51.902;-8.462;2023-08-12T02:09:22;18.30;73.10
80274;DHT22;69576;51.902;-8.462;2023-08-12T02:11:48;18.20;73.20
80274;DHT22;69576;51.902;-8.462;2023-08-12T02:14:14;18.20;73.10
80274;DHT22;69576;51.902;-8.462;2023-08-12T02:16:42;18.20;73.20
80274;DHT22;69576;51.902;-8.462;2023-08-12T02:19:08;18.20;73.20
80274;DHT22;69576;51.902;-8.462;2023-08-12T02:21:36;18.20;73.20
80274;DHT22;69576;51.902;-8.462;2023-08-12T02:24:02;18.20;73.20
80274;DHT22;69576;51.902;-8.462;2023-08-12T02:26:30;18.20;73.20
80274;DHT22;69576;51.902;-8.462;2023-08-12T02:29:01;18.20;73.20
80274;DHT22;69576;51.902;-8.462;2023-08-12T02:31:29;18.20;73.20
80274;DHT22;69576;51.902;-8.462;2023-08-12T02:33:55;18.20;73.20
80274;DHT22;69576;51.902;-8.462;2023-08-12T02:36:23;18.20;73.20
80274;DHT22;69576;51.902;-8.462;2023-08-12T02:38:49;18.20;73.30
80274;DHT22;69576;51.902;-8.462;2023-08-12T02:41:17;18.20;73.20
80274;DHT22;69576;51.902;-8.462;2023-08-12T02:43:42;18.20;73.20
80274;DHT22;69576;51.902;-8.462;2023-08-12T02:46:08;18.20;73.20
80274;DHT22;69576;51.902;-8.462;2023-08-12T02:48:35;18.20;73.20
80274;DHT22;69576;51.902;-8.462;2023-08-12T02:51:03;18.20;73.20
80274;DHT22;69576;51.902;-8.462;2023-08-12T02:53:28;18.20;73.10
80274;DHT22;69576;51.902;-8.462;2023-08-12T02:55:56;18.20;73.20
80274;DHT22;69576;51.902;-8.462;2023-08-12T02:58:22;18.20;73.20
80274;DHT22;69576;51.902;-8.462;2023-08-12T03:00:48;18.20;73.20
80274;DHT22;69576;51.902;-8.462;2023-08-12T03:03:13;18.20;73.20
80274;DHT22;69576;51.902;-8.462;2023-08-12T03:05:39;18.20;73.20
80274;DHT22;69576;51.902;-8.462;2023-08-12T03:08:06;18.20;73.20
80274;DHT22;69576;51.902;-8.462;2023-08-12T03:10:33;18.20;73.20
80274;DHT22;69576;51.902;-8.462;2023-08-12T03:13:02;18.20;73.20
80274;DHT22;69576;51.902;-8.462;2023-08-12T03:15:27;18.20;73.10
80274;DHT22;69576;51.902;-8.462;2023-08-12T03:17:53;18.20;73.20
80274;DHT22;69576;51.902;-8.462;2023-08-12T03:20:21;18.10;73.20
80274;DHT22;69576;51.902;-8.462;2023-08-12T03:22:47;18.10;73.20
80274;DHT22;69576;51.902;-8.462;2023-08-12T03:25:13;18.20;73.10
80274;DHT22;69576;51.902;-8.462;2023-08-12T03:27:40;18.10;73.20
80274;DHT22;69576;51.902;-8.462;2023-08-12T03:30:08;18.10;73.10
80274;DHT22;69576;51.902;-8.462;2023-08-12T03:32:34;18.10;73.20
80274;DHT22;69576;51.902;-8.462;2023-08-12T03:34:59;18.20;73.20
80274;DHT22;69576;51.902;-8.462;2023-08-12T03:37:25;18.20;73.20
80274;DHT22;69576;51.902;-8.462;2023-08-12T03:39:51;18.10;73.10
80274;DHT22;69576;51.902;-8.462;2023-08-12T03:42:19;18.10;73.10
80274;DHT22;69576;51.902;-8.462;2023-08-12T03:44:45;18.10;73.10
80274;DHT22;69576;51.902;-8.462;2023-08-12T03:47:11;18.10;73.20
80274;DHT22;69576;51.902;-8.462;2023-08-12T03:49:37;18.10;73.20
80274;DHT22;69576;51.902;-8.462;2023-08-12T03:52:03;18.10;73.20
80274;DHT22;69576;51.902;-8.462;2023-08-12T03:54:29;18.10;73.20
80274;DHT22;69576;51.902;-8.462;2023-08-12T03:56:58;18.10;73.20
80274;DHT22;69576;51.902;-8.462;2023-08-12T03:59:23;18.10;73.20
80274;DHT22;69576;51.902;-8.462;2023-08-12T04:01:49;18.10;73.30
80274;DHT22;69576;51.902;-8.462;2023-08-12T04:04:19;18.10;73.20
80274;DHT22;69576;51.902;-8.462;2023-08-12T04:06:47;18.10;73.20
80274;DHT22;69576;51.902;-8.462;2023-08-12T04:09:19;18.10;73.30
80274;DHT22;69576;51.902;-8.462;2023-08-12T04:11:47;18.10;73.20
80274;DHT22;69576;51.902;-8.462;2023-08-12T04:14:13;18.10;73.20
80274;DHT22;69576;51.902;-8.462;2023-08-12T04:16:40;18.10;73.20
80274;DHT22;69576;51.902;-8.462;2023-08-12T04:19:08;18.10;73.20
80274;DHT22;69576;51.902;-8.462;2023-08-12T04:21:33;18.10;73.30
80274;DHT22;69576;51.902;-8.462;2023-08-12T04:23:59;18.10;73.20
80274;DHT22;69576;51.902;-8.462;2023-08-12T04:26:25;18.10;73.30
80274;DHT22;69576;51.902;-8.462;2023-08-12T04:28:51;18.10;73.30
80274;DHT22;69576;51.902;-8.462;2023-08-12T04:31:16;18.10;73.30
80274;DHT22;69576;51.902;-8.462;2023-08-12T04:33:45;18.10;73.30
80274;DHT22;69576;51.902;-8.462;2023-08-12T04:36:10;18.10;73.30
80274;DHT22;69576;51.902;-8.462;2023-08-12T04:38:36;18.10;73.30
80274;DHT22;69576;51.902;-8.462;2023-08-12T04:41:02;18.10;73.30
80274;DHT22;69576;51.902;-8.462;2023-08-12T04:43:28;18.00;73.40
80274;DHT22;69576;51.902;-8.462;2023-08-12T04:45:56;18.10;73.30
80274;DHT22;69576;51.902;-8.462;2023-08-12T04:48:21;18.10;73.40
80274;DHT22;69576;51.902;-8.462;2023-08-12T04:50:50;18.10;73.40
80274;DHT22;69576;51.902;-8.462;2023-08-12T04:53:15;18.00;73.40
80274;DHT22;69576;51.902;-8.462;2023-08-12T04:55:43;18.00;73.40
80274;DHT22;69576;51.902;-8.462;2023-08-12T04:58:09;18.00;73.50
80274;DHT22;69576;51.902;-8.462;2023-08-12T05:00:35;18.00;73.40
80274;DHT22;69576;51.902;-8.462;2023-08-12T05:03:00;18.00;73.50
80274;DHT22;69576;51.902;-8.462;2023-08-12T05:05:27;18.00;73.50
80274;DHT22;69576;51.902;-8.462;2023-08-12T05:07:57;18.00;73.50
80274;DHT22;69576;51.902;-8.462;2023-08-12T05:10:23;18.00;73.40
80274;DHT22;69576;51.902;-8.462;2023-08-12T05:12:49;18.00;73.50
80274;DHT22;69576;51.902;-8.462;2023-08-12T05:15:16;18.00;73.50
80274;DHT22;69576;51.902;-8.462;2023-08-12T05:17:43;18.00;73.40
80274;DHT22;69576;51.902;-8.462;2023-08-12T05:20:13;18.00;73.40
80274;DHT22;69576;51.902;-8.462;2023-08-12T05:22:38;18.00;73.50
80274;DHT22;69576;51.902;-8.462;2023-08-12T05:25:04;18.00;73.40
80274;DHT22;69576;51.902;-8.462;2023-08-12T05:27:33;18.00;73.40
80274;DHT22;69576;51.902;-8.462;2023-08-12T05:30:01;18.00;73.50
80274;DHT22;69576;51.902;-8.462;2023-08-12T05:32:27;18.00;73.50
80274;DHT22;69576;51.902;-8.462;2023-08-12T05:34:55;18.00;73.60
80274;DHT22;69576;51.902;-8.462;2023-08-12T05:37:23;18.00;73.60
80274;DHT22;69576;51.902;-8.462;2023-08-12T05:39:48;18.00;73.50
80274;DHT22;69576;51.902;-8.462;2023-08-12T05:42:16;18.00;73.60
80274;DHT22;69576;51.902;-8.462;2023-08-12T05:44:44;18.00;73.60
80274;DHT22;69576;51.902;-8.462;2023-08-12T05:47:10;18.00;73.50
80274;DHT22;69576;51.902;-8.462;2023-08-12T05:49:38;18.00;73.50
80274;DHT22;69576;51.902;-8.462;2023-08-12T05:52:04;18.00;73.50
80274;DHT22;69576;51.902;-8.462;2023-08-12T05:54:32;18.00;73.50
80274;DHT22;69576;51.902;-8.462;2023-08-12T05:57:00;18.00;73.50
80274;DHT22;69576;51.902;-8.462;2023-08-12T05:59:26;18.00;73.60
80274;DHT22;69576;51.902;-8.462;2023-08-12T06:01:53;18.00;73.60
80274;DHT22;69576;51.902;-8.462;2023-08-12T06:04:19;18.00;73.50
80274;DHT22;69576;51.902;-8.462;2023-08-12T06:06:47;18.00;73.50
80274;DHT22;69576;51.902;-8.462;2023-08-12T06:09:15;18.10;73.50
80274;DHT22;69576;51.902;-8.462;2023-08-12T06:11:41;18.00;73.50
80274;DHT22;69576;51.902;-8.462;2023-08-12T06:14:07;18.00;73.50
80274;DHT22;69576;51.902;-8.462;2023-08-12T06:16:33;18.10;73.50
80274;DHT22;69576;51.902;-8.462;2023-08-12T06:19:00;18.10;73.60
80274;DHT22;69576;51.902;-8.462;2023-08-12T06:21:28;18.10;73.50
80274;DHT22;69576;51.902;-8.462;2023-08-12T06:23:56;18.10;73.50
80274;DHT22;69576;51.902;-8.462;2023-08-12T06:26:22;18.10;73.50
80274;DHT22;69576;51.902;-8.462;2023-08-12T06:28:48;18.10;73.40
80274;DHT22;69576;51.902;-8.462;2023-08-12T06:31:18;18.10;73.50
80274;DHT22;69576;51.902;-8.462;2023-08-12T06:33:44;18.10;73.40
80274;DHT22;69576;51.902;-8.462;2023-08-12T06:36:12;18.10;73.40
80274;DHT22;69576;51.902;-8.462;2023-08-12T06:38:38;18.10;73.40
80274;DHT22;69576;51.902;-8.462;2023-08-12T06:41:03;18.10;73.40
80274;DHT22;69576;51.902;-8.462;2023-08-12T06:43:32;18.10;73.50
80274;DHT22;69576;51.902;-8.462;2023-08-12T06:45:57;18.10;73.40
80274;DHT22;69576;51.902;-8.462;2023-08-12T06:48:23;18.10;73.50
80274;DHT22;69576;51.902;-8.462;2023-08-12T06:50:56;18.10;73.40
80274;DHT22;69576;51.902;-8.462;2023-08-12T06:53:22;18.20;73.50
80274;DHT22;69576;51.902;-8.462;2023-08-12T06:55:48;18.20;73.30
80274;DHT22;69576;51.902;-8.462;2023-08-12T06:58:14;18.20;73.30
80274;DHT22;69576;51.902;-8.462;2023-08-12T07:00:42;18.20;73.30
80274;DHT22;69576;51.902;-8.462;2023-08-12T07:03:08;18.20;73.30
80274;DHT22;69576;51.902;-8.462;2023-08-12T07:05:34;18.20;73.20
80274;DHT22;69576;51.902;-8.462;2023-08-12T07:08:02;18.20;73.30
80274;DHT22;69576;51.902;-8.462;2023-08-12T07:10:30;18.20;73.30
80274;DHT22;69576;51.902;-8.462;2023-08-12T07:12:59;18.30;73.10
80274;DHT22;69576;51.902;-8.462;2023-08-12T07:15:25;18.30;73.20
80274;DHT22;69576;51.902;-8.462;2023-08-12T07:17:50;18.30;73.30
80274;DHT22;69576;51.902;-8.462;2023-08-12T07:20:16;18.30;73.30
80274;DHT22;69576;51.902;-8.462;2023-08-12T07:22:42;18.30;73.20
80274;DHT22;69576;51.902;-8.462;2023-08-12T07:25:08;18.30;73.10
80274;DHT22;69576;51.902;-8.462;2023-08-12T07:27:34;18.30;73.20
80274;DHT22;69576;51.902;-8.462;2023-08-12T07:30:00;18.30;73.70
80274;DHT22;69576;51.902;-8.462;2023-08-12T07:32:25;18.40;73.40
80274;DHT22;69576;51.902;-8.462;2023-08-12T07:34:51;18.40;73.60
80274;DHT22;69576;51.902;-8.462;2023-08-12T07:37:17;18.40;73.80
80274;DHT22;69576;51.902;-8.462;2023-08-12T07:39:45;18.40;73.90
80274;DHT22;69576;51.902;-8.462;2023-08-12T07:42:13;18.40;74.20
80274;DHT22;69576;51.902;-8.462;2023-08-12T07:44:41;18.50;74.60
80274;DHT22;69576;51.902;-8.462;2023-08-12T07:47:09;18.50;74.50
80274;DHT22;69576;51.902;-8.462;2023-08-12T07:49:35;18.50;75.00
80274;DHT22;69576;51.902;-8.462;2023-08-12T07:52:01;18.60;75.40
80274;DHT22;69576;51.902;-8.462;2023-08-12T07:54:27;18.60;75.70
80274;DHT22;69576;51.902;-8.462;2023-08-12T07:56:52;18.70;75.50
80274;DHT22;69576;51.902;-8.462;2023-08-12T07:59:19;18.80;75.30
80274;DHT22;69576;51.902;-8.462;2023-08-12T08:01:45;18.80;75.10
80274;DHT22;69576;51.902;-8.462;2023-08-12T08:04:11;18.90;75.00
80274;DHT22;69576;51.902;-8.462;2023-08-12T08:06:37;19.00;74.90
80274;DHT22;69576;51.902;-8.462;2023-08-12T08:09:03;19.10;74.50
80274;DHT22;69576;51.902;-8.462;2023-08-12T08:11:31;19.10;74.20
80274;DHT22;69576;51.902;-8.462;2023-08-12T08:13:58;19.20;74.00
80274;DHT22;69576;51.902;-8.462;2023-08-12T08:16:24;19.20;73.80
80274;DHT22;69576;51.902;-8.462;2023-08-12T08:18:52;19.30;73.90
80274;DHT22;69576;51.902;-8.462;2023-08-12T08:21:20;19.30;73.70
80274;DHT22;69576;51.902;-8.462;2023-08-12T08:23:48;19.40;74.00
80274;DHT22;69576;51.902;-8.462;2023-08-12T08:26:14;19.40;73.50
80274;DHT22;69576;51.902;-8.462;2023-08-12T08:28:43;19.50;73.60
80274;DHT22;69576;51.902;-8.462;2023-08-12T08:31:09;19.50;73.30
80274;DHT22;69576;51.902;-8.462;2023-08-12T08:33:35;19.50;73.50
80274;DHT22;69576;51.902;-8.462;2023-08-12T08:36:03;19.50;73.20
80274;DHT22;69576;51.902;-8.462;2023-08-12T08:38:29;19.50;73.30
80274;DHT22;69576;51.902;-8.462;2023-08-12T08:40:55;19.50;73.50
80274;DHT22;69576;51.902;-8.462;2023-08-12T08:43:23;19.50;73.60
80274;DHT22;69576;51.902;-8.462;2023-08-12T08:45:54;19.50;73.60
80274;DHT22;69576;51.902;-8.462;2023-08-12T08:48:21;19.40;73.70
80274;DHT22;69576;51.902;-8.462;2023-08-12T08:50:48;19.40;73.40
80274;DHT22;69576;51.902;-8.462;2023-08-12T08:53:14;19.40;74.00
80274;DHT22;69576;51.902;-8.462;2023-08-12T08:55:41;19.30;74.10
80274;DHT22;69576;51.902;-8.462;2023-08-12T08:58:07;19.30;74.20
80274;DHT22;69576;51.902;-8.462;2023-08-12T09:00:33;19.30;74.20
80274;DHT22;69576;51.902;-8.462;2023-08-12T09:03:02;19.30;74.30
80274;DHT22;69576;51.902;-8.462;2023-08-12T09:05:28;19.20;74.20
80274;DHT22;69576;51.902;-8.462;2023-08-12T09:07:55;19.20;74.40
80274;DHT22;69576;51.902;-8.462;2023-08-12T09:10:26;19.20;73.90
80274;DHT22;69576;51.902;-8.462;2023-08-12T09:12:55;19.20;74.30
80274;DHT22;69576;51.902;-8.462;2023-08-12T09:15:21;19.20;74.10
80274;DHT22;69576;51.902;-8.462;2023-08-12T09:17:47;19.20;74.40
80274;DHT22;69576;51.902;-8.462;2023-08-12T09:20:12;19.20;74.30
80274;DHT22;69576;51.902;-8.462;2023-08-12T09:22:40;19.20;74.40
80274;DHT22;69576;51.902;-8.462;2023-08-12T09:25:07;19.10;74.50
80274;DHT22;69576;51.902;-8.462;2023-08-12T09:27:36;19.10;74.30
80274;DHT22;69576;51.902;-8.462;2023-08-12T09:30:03;19.10;74.60
80274;DHT22;69576;51.902;-8.462;2023-08-12T09:32:30;19.10;74.80
80274;DHT22;69576;51.902;-8.462;2023-08-12T09:34:56;19.10;74.60
80274;DHT22;69576;51.902;-8.462;2023-08-12T09:37:23;19.10;74.80
80274;DHT22;69576;51.902;-8.462;2023-08-12T09:39:52;19.10;74.70
80274;DHT22;69576;51.902;-8.462;2023-08-12T09:42:18;19.10;74.50
80274;DHT22;69576;51.902;-8.462;2023-08-12T09:44:44;19.20;74.70
80274;DHT22;69576;51.902;-8.462;2023-08-12T09:47:13;19.20;74.60
80274;DHT22;69576;51.902;-8.462;2023-08-12T09:49:40;19.20;74.20
80274;DHT22;69576;51.902;-8.462;2023-08-12T09:52:07;19.20;74.30
80274;DHT22;69576;51.902;-8.462;2023-08-12T09:54:35;19.20;74.30
80274;DHT22;69576;51.902;-8.462;2023-08-12T09:57:05;19.20;74.60
80274;DHT22;69576;51.902;-8.462;2023-08-12T09:59:35;19.20;74.40
80274;DHT22;69576;51.902;-8.462;2023-08-12T10:02:02;19.20;74.00
80274;DHT22;69576;51.902;-8.462;2023-08-12T10:04:45;19.20;73.90
80274;DHT22;69576;51.902;-8.462;2023-08-12T10:07:14;19.20;73.70
80274;DHT22;69576;51.902;-8.462;2023-08-12T10:09:40;19.20;73.30
80274;DHT22;69576;51.902;-8.462;2023-08-12T10:12:07;19.20;73.60
80274;DHT22;69576;51.902;-8.462;2023-08-12T10:14:33;19.20;73.70
80274;DHT22;69576;51.902;-8.462;2023-08-12T10:17:02;19.20;74.00
80274;DHT22;69576;51.902;-8.462;2023-08-12T10:19:28;19.20;73.80
80274;DHT22;69576;51.902;-8.462;2023-08-12T10:21:55;19.20;73.30
80274;DHT22;69576;51.902;-8.462;2023-08-12T10:24:27;19.20;73.70
80274;DHT22;69576;51.902;-8.462;2023-08-12T10:26:55;19.20;73.80
80274;DHT22;69576;51.902;-8.462;2023-08-12T10:29:24;19.20;73.70
80274;DHT22;69576;51.902;-8.462;2023-08-12T10:31:50;19.20;73.90
80274;DHT22;69576;51.902;-8.462;2023-08-12T10:34:23;19.20;73.50
80274;DHT22;69576;51.902;-8.462;2023-08-12T10:36:57;19.20;73.50
80274;DHT22;69576;51.902;-8.462;2023-08-12T10:39:31;19.20;73.80
80274;DHT22;69576;51.902;-8.462;2023-08-12T10:41:59;19.20;73.60
80274;DHT22;69576;51.902;-8.462;2023-08-12T10:44:51;19.20;73.30
80274;DHT22;69576;51.902;-8.462;2023-08-12T10:47:17;19.20;73.30
80274;DHT22;69576;51.902;-8.462;2023-08-12T10:49:47;19.20;73.40
80274;DHT22;69576;51.902;-8.462;2023-08-12T10:52:36;19.20;73.10
80274;DHT22;69576;51.902;-8.462;2023-08-12T10:55:22;19.20;73.20
80274;DHT22;69576;51.902;-8.462;2023-08-12T10:57:54;19.20;73.40
80274;DHT22;69576;51.902;-8.462;2023-08-12T11:00:26;19.20;73.70
80274;DHT22;69576;51.902;-8.462;2023-08-12T11:02:56;19.30;73.30
80274;DHT22;69576;51.902;-8.462;2023-08-12T11:05:23;19.30;73.40
80274;DHT22;69576;51.902;-8.462;2023-08-12T11:07:58;19.30;73.00
80274;DHT22;69576;51.902;-8.462;2023-08-12T11:10:30;19.30;72.80
80274;DHT22;69576;51.902;-8.462;2023-08-12T11:12:57;19.40;72.40
80274;DHT22;69576;51.902;-8.462;2023-08-12T11:15:43;19.40;72.90
80274;DHT22;69576;51.902;-8.462;2023-08-12T11:18:16;19.40;72.50
80274;DHT22;69576;51.902;-8.462;2023-08-12T11:20:42;19.40;72.80
80274;DHT22;69576;51.902;-8.462;2023-08-12T11:23:09;19.40;72.90
80274;DHT22;69576;51.902;-8.462;2023-08-12T11:25:37;19.40;72.40
80274;DHT22;69576;51.902;-8.462;2023-08-12T11:28:11;19.40;72.70
80274;DHT22;69576;51.902;-8.462;2023-08-12T11:30:36;19.40;72.50
80274;DHT22;69576;51.902;-8.462;2023-08-12T11:33:08;19.40;72.40
80274;DHT22;69576;51.902;-8.462;2023-08-12T11:35:34;19.40;72.50
80274;DHT22;69576;51.902;-8.462;2023-08-12T11:38:00;19.40;72.30
80274;DHT22;69576;51.902;-8.462;2023-08-12T11:40:27;19.40;72.20
80274;DHT22;69576;51.902;-8.462;2023-08-12T11:42:54;19.40;72.20
80274;DHT22;69576;51.902;-8.462;2023-08-12T11:45:24;19.40;72.10
80274;DHT22;69576;51.902;-8.462;2023-08-12T11:47:50;19.50;72.10
80274;DHT22;69576;51.902;-8.462;2023-08-12T11:50:23;19.40;72.50
80274;DHT22;69576;51.902;-8.462;2023-08-12T11:52:49;19.50;72.50
80274;DHT22;69576;51.902;-8.462;2023-08-12T11:55:15;19.50;72.30
80274;DHT22;69576;51.902;-8.462;2023-08-12T11:57:44;19.50;72.30
80274;DHT22;69576;51.902;-8.462;2023-08-12T12:00:12;19.50;72.50
80274;DHT22;69576;51.902;-8.462;2023-08-12T12:02:52;19.50;72.50
80274;DHT22;69576;51.902;-8.462;2023-08-12T12:05:21;19.50;72.50
80274;DHT22;69576;51.902;-8.462;2023-08-12T12:07:48;19.50;71.90
80274;DHT22;69576;51.902;-8.462;2023-08-12T12:10:19;19.70;72.10
80274;DHT22;69576;51.902;-8.462;2023-08-12T12:12:45;19.70;71.80
80274;DHT22;69576;51.902;-8.462;2023-08-12T12:15:13;19.90;71.30
80274;DHT22;69576;51.902;-8.462;2023-08-12T12:17:40;20.00;71.10
80274;DHT22;69576;51.902;-8.462;2023-08-12T12:20:07;20.00;70.90
80274;DHT22;69576;51.902;-8.462;2023-08-12T12:22:36;20.00;70.70
80274;DHT22;69576;51.902;-8.462;2023-08-12T12:25:08;20.00;70.60
80274;DHT22;69576;51.902;-8.462;2023-08-12T12:27:37;20.10;70.80
80274;DHT22;69576;51.902;-8.462;2023-08-12T12:30:03;20.20;70.50
80274;DHT22;69576;51.902;-8.462;2023-08-12T12:32:29;20.20;70.70
80274;DHT22;69576;51.902;-8.462;2023-08-12T12:34:59;20.30;70.20
80274;DHT22;69576;51.902;-8.462;2023-08-12T12:37:25;20.30;69.90
80274;DHT22;69576;51.902;-8.462;2023-08-12T12:39:51;20.30;70.10
80274;DHT22;69576;51.902;-8.462;2023-08-12T12:42:17;20.30;70.10
80274;DHT22;69576;51.902;-8.462;2023-08-12T12:44:43;20.40;70.00
80274;DHT22;69576;51.902;-8.462;2023-08-12T12:47:08;20.40;69.70
80274;DHT22;69576;51.902;-8.462;2023-08-12T12:49:36;20.50;69.60
80274;DHT22;69576;51.902;-8.462;2023-08-12T12:52:02;20.50;69.50
80274;DHT22;69576;51.902;-8.462;2023-08-12T12:54:27;20.50;69.50
80274;DHT22;69576;51.902;-8.462;2023-08-12T12:56:55;20.50;69.20
80274;DHT22;69576;51.902;-8.462;2023-08-12T12:59:23;20.50;69.50
80274;DHT22;69576;51.902;-8.462;2023-08-12T13:01:51;20.40;69.00
80274;DHT22;69576;51.902;-8.462;2023-08-12T13:04:17;20.50;69.10
80274;DHT22;69576;51.902;-8.462;2023-08-12T13:06:42;20.50;69.10
80274;DHT22;69576;51.902;-8.462;2023-08-12T13:09:08;20.50;69.20
80274;DHT22;69576;51.902;-8.462;2023-08-12T13:11:34;20.50;69.40
80274;DHT22;69576;51.902;-8.462;2023-08-12T13:14:01;20.50;69.40
80274;DHT22;69576;51.902;-8.462;2023-08-12T13:16:27;20.50;69.40
80274;DHT22;69576;51.902;-8.462;2023-08-12T13:18:52;20.40;69.40
80274;DHT22;69576;51.902;-8.462;2023-08-12T13:21:21;20.50;69.50
80274;DHT22;69576;51.902;-8.462;2023-08-12T13:23:47;20.50;69.40
80274;DHT22;69576;51.902;-8.462;2023-08-12T13:26:13;20.50;69.70
80274;DHT22;69576;51.902;-8.462;2023-08-12T13:28:38;20.50;69.30
80274;DHT22;69576;51.902;-8.462;2023-08-12T13:31:04;20.50;69.10
80274;DHT22;69576;51.902;-8.462;2023-08-12T13:33:30;20.50;69.10
80274;DHT22;69576;51.902;-8.462;2023-08-12T13:35:56;20.50;69.10
80274;DHT22;69576;51.902;-8.462;2023-08-12T13:38:24;20.50;69.00
80274;DHT22;69576;51.902;-8.462;2023-08-12T13:40:50;20.50;69.00
80274;DHT22;69576;51.902;-8.462;2023-08-12T13:43:18;20.50;69.10
80274;DHT22;69576;51.902;-8.462;2023-08-12T13:45:43;20.50;68.70
80274;DHT22;69576;51.902;-8.462;2023-08-12T13:48:09;20.50;68.80
80274;DHT22;69576;51.902;-8.462;2023-08-12T13:50:35;20.50;68.60
80274;DHT22;69576;51.902;-8.462;2023-08-12T13:53:01;20.50;68.70
80274;DHT22;69576;51.902;-8.462;2023-08-12T13:55:27;20.50;69.20
80274;DHT22;69576;51.902;-8.462;2023-08-12T13:57:52;20.50;69.00
80274;DHT22;69576;51.902;-8.462;2023-08-12T14:00:21;20.60;68.90
80274;DHT22;69576;51.902;-8.462;2023-08-12T14:02:47;20.60;69.00
80274;DHT22;69576;51.902;-8.462;2023-08-12T14:05:14;20.60;69.00
80274;DHT22;69576;51.902;-8.462;2023-08-12T14:07:40;20.60;69.00
80274;DHT22;69576;51.902;-8.462;2023-08-12T14:10:08;20.60;68.60
80274;DHT22;69576;51.902;-8.462;2023-08-12T14:12:35;20.60;68.70
80274;DHT22;69576;51.902;-8.462;2023-08-12T14:15:01;20.60;68.60
80274;DHT22;69576;51.902;-8.462;2023-08-12T14:17:27;20.60;68.80
80274;DHT22;69576;51.902;-8.462;2023-08-12T14:19:53;20.60;68.80
80274;DHT22;69576;51.902;-8.462;2023-08-12T14:22:19;20.60;68.90
80274;DHT22;69576;51.902;-8.462;2023-08-12T14:24:48;20.60;68.80
80274;DHT22;69576;51.902;-8.462;2023-08-12T14:27:16;20.60;68.90
80274;DHT22;69576;51.902;-8.462;2023-08-12T14:29:46;20.60;68.70
80274;DHT22;69576;51.902;-8.462;2023-08-12T14:32:12;20.60;68.80
80274;DHT22;69576;51.902;-8.462;2023-08-12T14:34:40;20.60;68.70
80274;DHT22;69576;51.902;-8.462;2023-08-12T14:37:08;20.60;68.80
80274;DHT22;69576;51.902;-8.462;2023-08-12T14:39:34;20.60;68.90
80274;DHT22;69576;51.902;-8.462;2023-08-12T14:42:00;20.60;68.80
80274;DHT22;69576;51.902;-8.462;2023-08-12T14:44:26;20.60;68.90
80274;DHT22;69576;51.902;-8.462;2023-08-12T14:46:56;20.50;68.70
80274;DHT22;69576;51.902;-8.462;2023-08-12T14:49:22;20.50;69.00
80274;DHT22;69576;51.902;-8.462;2023-08-12T14:51:48;20.50;68.80
80274;DHT22;69576;51.902;-8.462;2023-08-12T14:54:13;20.50;68.60
80274;DHT22;69576;51.902;-8.462;2023-08-12T14:56:39;20.50;69.00
80274;DHT22;69576;51.902;-8.462;2023-08-12T14:59:05;20.50;68.90
80274;DHT22;69576;51.902;-8.462;2023-08-12T15:01:30;20.50;69.20
80274;DHT22;69576;51.902;-8.462;2023-08-12T15:03:56;20.50;69.20
80274;DHT22;69576;51.902;-8.462;2023-08-12T15:06:22;20.50;69.30
80274;DHT22;69576;51.902;-8.462;2023-08-12T15:08:49;20.50;69.50
80274;DHT22;69576;51.902;-8.462;2023-08-12T15:11:17;20.50;69.10
80274;DHT22;69576;51.902;-8.462;2023-08-12T15:13:42;20.40;69.40
80274;DHT22;69576;51.902;-8.462;2023-08-12T15:16:08;20.40;69.30
80274;DHT22;69576;51.902;-8.462;2023-08-12T15:18:36;20.40;69.30
80274;DHT22;69576;51.902;-8.462;2023-08-12T15:21:02;20.40;69.30